Latest Weather Observations for Deniliquin

IDN60801

Issued at 10:03 am EST Saturday 2 July 2016 (issued every 30 minutes, with the page automatically refreshed every 10 minutes)

About weather observations | Map of weather stations | Latest weather observations for NSW | Other Formats
Station Details ID: 074258 Name: DENILIQUIN AIRPORT AWS Lat: -35.56 Lon: 144.95 Height: 94.0 m
Data from the previous 72 hours. | See also: Recent months at Deniliquin
Date/Time
EST
Temp
°C
App
Temp
°C
Dew
Point
°C
Rel
Hum
%
Delta-T
°C
Wind Press
QNH
hPa
Press
MSL
hPa
Rain since
9am
mm
Dir  Spd
km/h
Gust
km/h
Spd
kts
Gust
kts
02/10:00am 11.3 7.6 10.2 93 0.6 W 20 26 11 14 1028.2 1028.4 0.0
02/09:30am 11.2 7.7 10.1 93 0.6 W 19 26 10 14 1027.9 1028.1 0.0
02/09:00am 10.6 7.4 9.8 95 0.4 WNW 17 22 9 12 1027.7 1027.9 0.0
02/08:30am 10.2 6.9 9.7 97 0.3 WNW 17 20 9 11 1027.6 1027.8 0.0
02/08:00am 9.8 6.5 9.5 98 0.1 WNW 17 20 9 11 1027.5 1027.7 0.0
02/07:30am 9.6 7.0 9.3 98 0.1 WNW 13 19 7 10 1027.2 1027.4 0.0
02/07:00am 9.5 7.2 9.0 97 0.2 NW 11 13 6 7 1026.8 1027.0 0.0
02/06:30am 9.5 7.2 8.9 96 0.3 WNW 11 15 6 8 1026.4 1026.7 0.0
02/06:00am 9.5 7.5 8.7 95 0.4 WNW 9 13 5 7 1026.2 1026.4 0.0
02/05:30am 9.8 7.4 8.7 93 0.5 NW 11 17 6 9 1026.0 1026.2 0.0
02/05:00am 9.7 6.9 8.6 93 0.5 NW 13 19 7 10 1025.9 1026.1 0.0
02/04:30am 9.7 6.5 8.3 91 0.7 NW 15 19 8 10 1025.7 1025.9 0.0
02/04:00am 9.6 6.3 8.2 91 0.7 NW 15 20 8 11 1025.8 1026.0 0.0
02/03:30am 9.6 6.7 8.0 90 0.8 NW 13 19 7 10 1026.0 1026.2 0.0
02/03:00am 9.3 7.6 8.4 94 0.4 NW 7 9 4 5 1026.1 1026.3 0.0
02/02:30am 9.3 6.4 8.2 93 0.5 NW 13 17 7 9 1026.0 1026.2 0.0
02/02:00am 9.4 6.8 7.8 90 0.8 NW 11 15 6 8 1026.2 1026.4 0.0
02/01:30am 9.4 6.8 7.7 89 0.8 NW 11 13 6 7 1026.2 1026.4 0.0
02/01:00am 9.4 6.7 7.5 88 0.9 NW 11 15 6 8 1026.2 1026.4 0.0
02/12:30am 9.5 6.4 7.1 85 1.1 NW 13 19 7 10 1026.3 1026.5 0.0
02/12:00am 9.2 6.5 7.2 87 0.9 NW 11 13 6 7 1026.1 1026.3 0.0
 
Date/Time
EST
Temp
°C
App
Temp
°C
Dew
Point
°C
Rel
Hum
%
Delta-T
°C
Wind Press
QNH
hPa
Press
MSL
hPa
Rain since
9am
mm
Dir  Spd
km/h
Gust
km/h
Spd
kts
Gust
kts
01/11:30pm 9.2 6.8 7.0 86 1.0 NW 9 11 5 6 1026.2 1026.4 0.0
01/11:00pm 9.3 6.8 6.7 84 1.2 NW 9 11 5 6 1026.1 1026.3 0.0
01/10:30pm 8.9 6.9 7.0 88 0.9 NW 7 9 4 5 1025.9 1026.1 0.0
01/10:00pm 8.7 6.3 7.0 89 0.8 NNW 9 11 5 6 1025.8 1026.0 0.0
01/09:30pm 8.8 6.2 6.3 84 1.2 NW 9 11 5 6 1025.7 1025.9 0.0
01/09:00pm 9.3 6.3 6.2 81 1.4 WNW 11 11 6 6 1025.6 1025.8 0.0
01/08:30pm 9.3 6.7 6.2 81 1.4 W 9 13 5 7 1025.3 1025.5 0.0
01/08:00pm 9.3 6.8 6.4 82 1.3 W 9 11 5 6 1025.3 1025.5 0.0
01/07:30pm 9.0 6.1 6.6 85 1.1 WSW 11 13 6 7 1025.1 1025.3 0.0
01/07:00pm 9.0 6.1 6.3 83 1.2 WSW 11 13 6 7 1024.7 1024.9 0.0
01/06:30pm 9.2 5.9 6.5 83 1.3 WSW 13 15 7 8 1024.6 1024.8 0.0
01/06:00pm 9.8 6.1 6.2 78 1.7 W 15 19 8 10 1024.2 1024.4 0.0
01/05:30pm 10.0 6.7 6.3 78 1.7 W 13 17 7 9 1023.8 1024.0 0.0
01/05:00pm 11.3 7.2 6.2 71 2.4 W 17 20 9 11 1023.5 1023.7 0.0
01/04:30pm 11.8 7.7 6.3 69 2.6 W 17 22 9 12 1023.1 1023.3 0.0
01/04:00pm 12.0 8.1 6.9 71 2.4 WSW 17 20 9 11 1022.8 1023.0 0.0
01/03:30pm 12.1 7.7 7.2 72 2.4 SW 20 26 11 14 1022.4 1022.6 0.0
01/03:00pm 12.1 7.6 6.8 70 2.5 WSW 20 28 11 15 1022.2 1022.4 0.0
01/02:30pm 12.2 7.9 7.1 71 2.5 WSW 19 24 10 13 1022.0 1022.2 0.0
01/02:00pm 11.9 7.5 7.4 74 2.2 WSW 20 24 11 13 1022.0 1022.2 0.0
01/01:30pm 12.0 7.0 8.1 77 1.9 WSW 24 30 13 16 1021.8 1022.0 0.0
01/01:00pm 11.7 6.5 7.2 74 2.2 WSW 24 32 13 17 1021.9 1022.1 0.0
01/12:30pm 11.7 6.2 7.4 75 2.1 WSW 26 35 14 19 1021.9 1022.1 0.0
01/12:00pm 11.6 5.8 7.9 78 1.8 SW 28 33 15 18 1022.0 1022.2 0.0
01/11:30am 11.0 5.6 7.9 81 1.5 SW 26 37 14 20 1022.1 1022.3 0.0
01/11:00am 10.8 5.4 8.2 84 1.3 WSW 26 35 14 19 1022.0 1022.2 0.0
01/10:30am 9.8 4.4 8.1 89 0.8 W 26 33 14 18 1021.9 1022.1 0.0
01/10:00am 9.4 4.0 8.0 91 0.7 W 26 32 14 17 1021.5 1021.7 0.0
01/09:30am 8.4 3.2 7.2 92 0.6 W 24 33 13 18 1021.0 1021.1 0.0
01/09:00am 7.6 3.0 6.7 94 0.4 W 20 26 11 14 1020.7 1020.8 5.8
01/08:30am 7.0 2.9 6.1 94 0.4 W 17 22 9 12 1020.2 1020.3 5.8
01/08:00am 7.1 3.4 6.5 96 0.3 W 15 20 8 11 1019.5 1019.6 5.8
01/07:30am 7.0 2.4 6.3 95 0.3 WSW 20 28 11 15 1019.0 1019.1 5.8
01/07:00am 6.9 1.5 6.2 95 0.3 W 24 32 13 17 1018.5 1018.6 5.8
01/06:30am 6.7 0.8 5.8 94 0.4 W 26 32 14 17 1018.0 1018.1 5.8
01/06:00am 7.0 1.5 5.8 92 0.5 W 24 30 13 16 1017.5 1017.6 5.8
01/05:30am 7.4 1.5 5.9 90 0.7 W 26 33 14 18 1016.9 1017.0 5.8
01/05:00am 7.6 1.3 5.9 89 0.8 W 28 35 15 19 1016.4 1016.5 5.8
01/04:30am 7.7 1.0 5.7 87 0.9 W 30 39 16 21 1015.8 1015.9 5.8
01/04:00am 7.5 1.2 5.5 87 0.9 W 28 35 15 19 1015.3 1015.5 5.8
01/03:30am 7.5 0.4 5.3 86 1.0 W 32 39 17 21 1015.0 1015.2 5.8
01/03:00am 7.3 0.1 4.8 84 1.1 W 32 43 17 23 1014.7 1014.9 5.8
01/02:30am 7.4 0.5 4.7 83 1.2 W 30 39 16 21 1014.5 1014.7 5.8
01/02:07am 7.6 0.3 4.7 82 1.3 W 32 50 17 27 1014.3 1014.5 5.8
01/02:00am 7.7 0.2 4.7 81 1.3 W 33 50 18 27 1014.2 1014.4 5.8
01/01:30am 7.8 0.5 4.6 80 1.4 W 32 44 17 24 1013.8 1014.0 5.8
01/01:00am 7.4 0.9 4.7 83 1.2 WNW 28 35 15 19 1013.5 1013.7 5.8
01/12:30am 7.4 0.5 4.7 83 1.2 WNW 30 41 16 22 1013.5 1013.7 5.8
01/12:00am 7.2 1.5 4.7 84 1.1 NW 24 32 13 17 1013.5 1013.7 5.8
 
Date/Time
EST
Temp
°C
App
Temp
°C
Dew
Point
°C
Rel
Hum
%
Delta-T
°C
Wind Press
QNH
hPa
Press
MSL
hPa
Rain since
9am
mm
Dir  Spd
km/h
Gust
km/h
Spd
kts
Gust
kts
30/11:30pm 7.2 2.5 5.0 86 1.0 NW 19 24 10 13 1013.9 1014.1 5.8
30/11:00pm 7.1 2.8 5.1 87 0.9 WNW 17 24 9 13 1014.0 1014.2 5.8
30/10:30pm 7.1 2.5 5.4 89 0.8 WNW 19 24 10 13 1013.9 1014.1 5.8
30/10:00pm 7.1 2.6 6.0 93 0.5 NW 19 24 10 13 1013.6 1013.8 5.8
30/09:30pm 7.3 2.6 6.2 93 0.5 WNW 20 24 11 13 1013.4 1013.6 5.8
30/09:00pm 7.4 3.3 6.2 92 0.5 WNW 17 22 9 12 1013.3 1013.5 5.8
30/08:30pm 7.3 3.6 6.4 94 0.4 NW 15 20 8 11 1013.2 1013.4 5.8
30/08:00pm 7.6 4.3 6.5 93 0.5 NW 13 19 7 10 1012.9 1013.1 5.8
30/07:30pm 7.8 4.7 7.1 95 0.3 NW 13 17 7 9 1012.5 1012.7 5.8
30/07:00pm 7.6 4.9 7.2 97 0.2 NNW 11 15 6 8 1012.4 1012.6 5.8
30/06:30pm 7.7 4.5 6.8 94 0.4 WNW 13 15 7 8 1012.2 1012.3 5.6
30/06:00pm 7.9 3.0 7.1 95 0.4 WSW 22 30 12 16 1012.1 1012.2 5.0
30/05:30pm 7.5 -0.8 6.0 90 0.7 W 39 83 21 45 1011.5 1011.6 2.8
30/05:24pm 7.6 0.4 5.2 85 1.1 NW 32 83 17 45 1011.4 1011.5 2.0
30/05:23pm 8.9 2.7 6.3 84 1.2 NNW 28 83 15 45 1010.9 1011.0 1.6
30/05:22pm 10.8 5.8 8.0 83 1.4 NNW 24 56 13 30 1010.8 1010.9 1.0
30/05:00pm 11.6 7.4 7.5 76 2.0 N 19 24 10 13 1009.3 1009.4 0.4
30/04:30pm 11.5 7.1 7.4 76 2.0 N 20 28 11 15 1009.7 1009.8 0.4
30/04:00pm 11.5 5.6 7.4 76 2.0 NNW 28 35 15 19 1010.2 1010.3 0.4
30/03:30pm 11.5 6.0 7.4 76 2.0 NNW 26 35 14 19 1010.1 1010.2 0.4
30/03:00pm 11.5 5.2 7.4 76 2.0 N 30 41 16 22 1010.1 1010.2 0.2
30/02:30pm 10.4 5.8 8.2 86 1.1 N 22 28 12 15 1010.3 1010.4 0.2
30/02:00pm 9.6 4.5 7.7 88 0.9 N 24 32 13 17 1011.2 1011.3 0.2
30/01:30pm 9.9 4.1 6.4 79 1.6 N 26 35 14 19 1011.9 1012.0 0.0
30/01:00pm 10.2 3.2 5.8 74 2.0 N 32 41 17 22 1012.3 1012.5 0.0
30/12:30pm 9.9 3.2 5.5 74 2.0 N 30 43 16 23 1013.0 1013.2 0.0
30/12:00pm 9.6 4.0 5.6 76 1.8 N 24 33 13 18 1013.8 1014.0 0.0
30/11:30am 9.4 2.6 5.2 75 1.9 N 30 39 16 21 1014.4 1014.6 0.0
30/11:00am 9.0 3.0 5.4 78 1.6 N 26 32 14 17 1015.2 1015.4 0.0
30/10:30am 8.4 2.7 5.0 79 1.5 N 24 37 13 20 1015.3 1015.5 0.0
30/10:00am 8.0 1.9 4.6 79 1.5 N 26 33 14 18 1015.7 1015.8 0.0
30/09:30am 8.0 1.9 4.6 79 1.5 N 26 37 14 20 1016.1 1016.2 0.0
30/09:00am 7.2 1.8 4.5 83 1.2 N 22 30 12 16 1016.2 1016.3 0.0
30/08:30am 6.6 1.5 4.3 85 1.0 N 20 32 11 17 1016.8 1016.9 0.0
30/08:00am 6.6 1.5 4.1 84 1.1 N 20 30 11 16 1017.0 1017.1 0.0
30/07:30am 6.6 1.7 3.9 83 1.2 N 19 28 10 15 1017.1 1017.2 0.0
30/07:00am 6.5 1.6 4.2 85 1.0 N 19 24 10 13 1017.3 1017.4 0.0
30/06:30am 6.3 1.2 4.1 86 0.9 N 20 26 11 14 1017.3 1017.4 0.0
30/06:00am 6.2 0.8 4.4 88 0.8 NNE 22 30 12 16 1017.3 1017.4 0.0
30/05:30am 5.7 0.9 4.5 92 0.5 NNE 19 24 10 13 1017.7 1017.8 0.0
30/05:00am 5.1 1.0 4.2 94 0.4 NNE 15 19 8 10 1018.1 1018.2 0.0
30/04:30am 5.3 1.2 4.4 94 0.4 NNE 15 19 8 10 1018.3 1018.4 0.0
30/04:00am 5.1 1.4 4.5 96 0.3 NNE 13 15 7 8 1018.7 1018.8 0.0
30/03:30am 5.0 1.3 4.3 95 0.3 NNE 13 15 7 8 1019.2 1019.3 0.0
30/03:00am 5.3 1.6 4.4 94 0.4 NNE 13 17 7 9 1019.5 1019.6 0.0
30/02:30am 5.5 1.8 4.6 94 0.4 NNE 13 15 7 8 1019.9 1020.0 0.0
30/02:00am 5.4 2.5 4.5 94 0.4 NNE 9 13 5 7 1020.1 1020.2 0.0
30/01:30am 5.5 2.2 4.3 92 0.5 NNE 11 15 6 8 1020.3 1020.4 0.0
30/01:00am 6.4 3.1 4.7 89 0.7 NNE 11 17 6 9 1020.7 1020.8 0.0
30/12:30am 7.2 3.6 5.0 86 1.0 NNE 13 19 7 10 1020.8 1020.9 0.0
30/12:00am 7.4 3.5 5.2 86 1.0 N 15 20 8 11 1021.2 1021.4 0.0
 
Date/Time
EST
Temp
°C
App
Temp
°C
Dew
Point
°C
Rel
Hum
%
Delta-T
°C
Wind Press
QNH
hPa
Press
MSL
hPa
Rain since
9am
mm
Dir  Spd
km/h
Gust
km/h
Spd
kts
Gust
kts
29/11:30pm 7.0 3.4 5.2 88 0.8 NNE 13 17 7 9 1021.3 1021.5 0.0
29/11:00pm 7.0 3.4 5.2 88 0.8 NNE 13 17 7 9 1021.8 1022.0 0.0
29/10:30pm 6.9 3.7 4.9 87 0.9 N 11 13 6 7 1022.0 1022.2 0.0
29/10:00pm 7.5 3.9 5.1 85 1.1 NNE 13 17 7 9 1022.2 1022.4 0.0
29/09:30pm 7.9 4.0 5.2 83 1.2 NNE 15 19 8 10 1022.2 1022.4 0.0
29/09:00pm 8.1 4.2 5.4 83 1.2 NNE 15 20 8 11 1022.4 1022.6 0.0
29/08:30pm 8.3 4.4 5.4 82 1.3 NNE 15 19 8 10 1022.8 1023.0 0.0
29/08:00pm 8.5 4.6 5.4 81 1.4 NNE 15 17 8 9 1023.1 1023.3 0.0
29/07:30pm 8.8 5.3 5.5 80 1.5 NNE 13 15 7 8 1023.3 1023.5 0.0
29/07:00pm 9.4 5.6 5.8 78 1.6 NNE 15 17 8 9 1023.4 1023.6 0.0
29/06:30pm 9.4 6.0 5.8 78 1.7 NNE 13 17 7 9 1023.4 1023.6 0.0
29/06:00pm 10.1 6.7 5.7 74 2.0 NNE 13 17 7 9 1023.7 1023.9 0.0
29/05:30pm 10.9 7.5 5.9 71 2.3 NNE 13 17 7 9 1024.0 1024.2 0.0
29/05:00pm 11.7 8.3 6.0 68 2.7 N 13 17 7 9 1024.2 1024.4 0.0
29/04:30pm 12.4 8.0 4.9 60 3.5 N 17 24 9 13 1024.6 1024.8 0.0
29/04:00pm 13.1 8.8 5.3 59 3.6 N 17 24 9 13 1024.6 1024.8 0.0
29/03:30pm 13.5 9.4 6.1 61 3.5 N 17 20 9 11 1024.7 1024.9 0.0
29/03:00pm 13.8 9.3 6.2 60 3.6 NNW 19 22 10 12 1025.1 1025.3 0.0
29/02:30pm 13.8 9.2 6.4 61 3.6 NNW 20 26 11 14 1025.5 1025.7 0.0
29/02:00pm 13.6 8.8 5.7 59 3.7 NNW 20 28 11 15 1025.6 1025.8 0.0
29/01:30pm 13.9 10.0 7.0 63 3.4 NNW 17 22 9 12 1026.1 1026.3 0.0
29/01:00pm 13.5 8.8 6.1 61 3.5 NNW 20 26 11 14 1026.7 1026.8 0.0
29/12:30pm 13.0 9.3 6.1 63 3.3 NNW 15 19 8 10 1027.1 1027.2 0.0
29/12:00pm 12.6 8.7 5.5 62 3.3 NNW 15 19 8 10 1027.8 1027.9 0.0
29/11:30am 12.4 8.6 5.6 63 3.2 NNW 15 20 8 11 1028.3 1028.4 0.0
29/11:00am 12.1 8.8 6.2 67 2.8 NW 13 17 7 9 1028.6 1028.7 0.0
29/10:30am 11.0 7.6 5.7 70 2.5 NNW 13 17 7 9 1028.9 1029.0 0.0

Other Formats:

Comma delimited format used in spreadsheet applications
http://www.bom.gov.au/fwo/IDN60801/IDN60801.95869.axf

JavaScript Object Notation format (JSON) in row-major order
http://www.bom.gov.au/fwo/IDN60801/IDN60801.95869.json